createdAt,value
2022-11-14T00:01:06.979Z,8.17
2022-11-14T00:03:34.699Z,8.09
2022-11-14T00:06:06.577Z,8.03
2022-11-14T00:08:34.390Z,8.00
2022-11-14T00:11:02.101Z,7.98
2022-11-14T00:13:31.153Z,7.95
2022-11-14T00:15:58.880Z,7.93
2022-11-14T00:18:26.881Z,7.89
2022-11-14T00:20:55.086Z,7.87
2022-11-14T00:23:22.934Z,7.86
2022-11-14T00:25:50.665Z,7.82
2022-11-14T00:28:18.462Z,7.79
2022-11-14T00:30:49.441Z,7.76
2022-11-14T00:33:20.496Z,7.72
2022-11-14T00:35:53.121Z,7.64
2022-11-14T00:38:20.831Z,7.60
2022-11-14T00:40:48.561Z,7.60
2022-11-14T00:43:16.436Z,7.58
2022-11-14T00:45:45.362Z,7.55
2022-11-14T00:48:15.008Z,7.51
2022-11-14T00:50:43.704Z,7.45
2022-11-14T00:53:11.856Z,7.36
2022-11-14T00:55:39.570Z,7.33
2022-11-14T00:58:07.567Z,7.33
2022-11-14T01:00:35.791Z,7.35
2022-11-14T01:03:03.624Z,7.28
2022-11-14T01:05:32.752Z,7.24
2022-11-14T01:08:00.479Z,7.27
2022-11-14T01:10:28.230Z,7.26
2022-11-14T01:12:55.981Z,7.29
2022-11-14T01:15:23.725Z,7.23
2022-11-14T01:17:51.460Z,7.24
2022-11-14T01:20:19.309Z,7.24
2022-11-14T01:22:48.390Z,7.24
2022-11-14T01:25:16.260Z,7.27
2022-11-14T01:27:43.991Z,7.26
2022-11-14T01:30:12.969Z,7.23
2022-11-14T01:32:40.754Z,7.22
2022-11-14T01:35:09.267Z,7.21
2022-11-14T01:37:36.972Z,7.19
2022-11-14T01:40:09.170Z,7.16
2022-11-14T01:42:36.876Z,7.20
2022-11-14T01:45:37.747Z,7.10
2022-11-14T01:48:05.667Z,7.09
2022-11-14T01:50:33.446Z,7.08
2022-11-14T01:53:01.118Z,7.08
2022-11-14T01:55:35.548Z,7.06
2022-11-14T01:58:03.487Z,7.01
2022-11-14T02:00:35.969Z,7.01
2022-11-14T02:03:04.233Z,7.02
2022-11-14T02:05:32.746Z,6.99
2022-11-14T02:08:00.562Z,6.98
2022-11-14T02:10:32.631Z,6.94
2022-11-14T02:13:00.418Z,6.97
2022-11-14T02:15:28.094Z,6.96
2022-11-14T02:17:56.368Z,6.96
2022-11-14T02:20:28.645Z,6.91
2022-11-14T02:22:56.941Z,6.92
2022-11-14T02:25:24.818Z,6.87
2022-11-14T02:27:52.611Z,6.85
2022-11-14T02:30:23.068Z,6.81
2022-11-14T02:33:10.685Z,6.77
2022-11-14T02:35:39.804Z,6.73
2022-11-14T02:38:09.734Z,6.74
2022-11-14T02:40:37.414Z,6.71
2022-11-14T02:43:05.309Z,6.69
2022-11-14T02:45:33.303Z,6.64
2022-11-14T02:48:01.094Z,6.63
2022-11-14T02:50:29.486Z,6.63
2022-11-14T02:52:58.590Z,6.62
2022-11-14T02:55:26.270Z,6.60
2022-11-14T02:57:54.010Z,6.58
2022-11-14T03:00:21.739Z,6.54
2022-11-14T03:02:49.433Z,6.52
2022-11-14T03:05:17.188Z,6.51
2022-11-14T03:07:44.997Z,6.50
2022-11-14T03:10:14.144Z,6.49
2022-11-14T03:12:41.838Z,6.48
2022-11-14T03:15:10.896Z,6.43
2022-11-14T03:17:38.864Z,6.41
2022-11-14T03:20:07.703Z,6.36
2022-11-14T03:22:35.434Z,6.33
2022-11-14T03:25:03.204Z,6.31
2022-11-14T03:27:32.312Z,6.29
2022-11-14T03:30:00.621Z,6.24
2022-11-14T03:32:28.385Z,6.22
2022-11-14T03:34:56.129Z,6.21
2022-11-14T03:37:23.900Z,6.18
2022-11-14T03:39:51.649Z,6.16
2022-11-14T03:42:19.374Z,6.13
2022-11-14T03:44:48.528Z,6.10
2022-11-14T03:47:16.247Z,6.06
2022-11-14T03:49:47.184Z,6.05
2022-11-14T03:52:14.942Z,6.02
2022-11-14T03:54:42.677Z,5.98
2022-11-14T03:57:10.407Z,5.97
2022-11-14T03:59:38.094Z,5.95
2022-11-14T04:02:07.199Z,5.92
2022-11-14T04:04:34.925Z,5.91
2022-11-14T04:07:02.697Z,5.90
2022-11-14T04:09:30.522Z,5.87
2022-11-14T04:11:58.228Z,5.83
2022-11-14T04:14:25.981Z,5.81
2022-11-14T04:16:53.707Z,5.77
2022-11-14T04:19:22.810Z,5.75
2022-11-14T04:21:50.541Z,5.72
2022-11-14T04:24:18.276Z,5.68
2022-11-14T04:26:45.973Z,5.67
2022-11-14T04:29:13.714Z,5.66
2022-11-14T04:31:41.463Z,5.65
2022-11-14T04:34:09.349Z,5.63
2022-11-14T04:36:38.487Z,5.62
2022-11-14T04:39:06.454Z,5.60
2022-11-14T04:41:34.135Z,5.61
2022-11-14T04:44:02.103Z,5.62
2022-11-14T04:46:30.084Z,5.59
2022-11-14T04:48:57.789Z,5.56
2022-11-14T04:51:25.738Z,5.55
2022-11-14T04:53:54.848Z,5.55
2022-11-14T04:56:25.294Z,5.57
2022-11-14T04:58:53.217Z,5.58
2022-11-14T05:01:21.029Z,5.57
2022-11-14T05:03:48.843Z,5.55
2022-11-14T05:06:16.606Z,5.54
2022-11-14T05:08:44.339Z,5.54
2022-11-14T05:11:17.163Z,5.50
2022-11-14T05:13:45.045Z,5.48
2022-11-14T05:16:13.233Z,5.49
2022-11-14T05:18:45.875Z,5.46
2022-11-14T05:21:16.094Z,5.37
2022-11-14T05:23:43.772Z,5.40
2022-11-14T05:26:14.010Z,5.43
2022-11-14T05:28:43.202Z,5.41
2022-11-14T05:31:13.699Z,5.43
2022-11-14T05:33:41.447Z,5.43
2022-11-14T05:36:11.354Z,5.41
2022-11-14T05:38:39.361Z,5.38
2022-11-14T05:41:08.060Z,5.37
2022-11-14T05:43:36.298Z,5.35
2022-11-14T05:46:07.127Z,5.34
2022-11-14T05:48:34.857Z,5.31
2022-11-14T05:51:05.266Z,5.30
2022-11-14T05:53:35.387Z,5.31
2022-11-14T05:56:04.190Z,5.27
2022-11-14T05:58:32.906Z,5.24
2022-11-14T06:01:07.215Z,5.24
2022-11-14T06:03:35.818Z,5.25
2022-11-14T06:06:05.342Z,5.27
2022-11-14T06:08:33.645Z,5.26
2022-11-14T06:11:05.314Z,5.25
2022-11-14T06:13:33.774Z,5.26
2022-11-14T06:16:02.324Z,5.25
2022-11-14T06:18:32.542Z,5.28
2022-11-14T06:21:01.157Z,5.24
2022-11-14T06:23:28.967Z,5.26
2022-11-14T06:25:59.831Z,5.24
2022-11-14T06:28:27.904Z,5.22
2022-11-14T06:30:58.849Z,5.22
2022-11-14T06:33:28.728Z,5.23
2022-11-14T06:36:01.449Z,5.22
2022-11-14T06:38:31.845Z,5.20
2022-11-14T06:41:04.060Z,5.23
2022-11-14T06:43:34.056Z,5.23
2022-11-14T06:46:01.983Z,5.21
2022-11-14T06:48:30.553Z,5.20
2022-11-14T06:51:01.140Z,5.21
2022-11-14T06:53:30.455Z,5.24
2022-11-14T06:56:00.114Z,5.22
2022-11-14T06:58:29.062Z,5.22
2022-11-14T07:00:57.288Z,5.22
2022-11-14T07:03:25.132Z,5.19
2022-11-14T07:05:52.983Z,5.22
2022-11-14T07:08:30.086Z,5.24
2022-11-14T07:11:02.872Z,5.23
2022-11-14T07:13:31.246Z,5.25
2022-11-14T07:15:58.978Z,5.24
2022-11-14T07:18:27.183Z,5.24
2022-11-14T07:20:59.472Z,5.24
2022-11-14T07:23:29.353Z,5.24
2022-11-14T07:25:57.154Z,5.27
2022-11-14T07:28:24.909Z,5.31
2022-11-14T07:30:52.652Z,5.34
2022-11-14T07:33:20.376Z,5.33
2022-11-14T07:35:48.089Z,5.32
2022-11-14T07:38:15.807Z,5.37
2022-11-14T07:40:58.161Z,5.43
2022-11-14T07:43:27.792Z,5.46
2022-11-14T07:45:59.570Z,5.53
2022-11-14T07:48:27.419Z,5.56
2022-11-14T07:50:58.745Z,5.60
2022-11-14T07:53:26.533Z,5.64
2022-11-14T07:55:55.972Z,5.66
2022-11-14T07:58:23.938Z,5.69
2022-11-14T08:00:51.692Z,5.74
2022-11-14T08:03:19.453Z,5.79
2022-11-14T08:05:47.144Z,5.81
2022-11-14T08:08:14.813Z,5.85
2022-11-14T08:10:42.518Z,5.91
2022-11-14T08:16:01.046Z,6.05
2022-11-14T08:18:28.961Z,6.14
2022-11-14T08:20:57.637Z,6.22
2022-11-14T08:23:25.371Z,6.27
2022-11-14T08:25:53.420Z,6.31
2022-11-14T08:28:22.462Z,6.37
2022-11-14T08:30:50.153Z,6.47
2022-11-14T08:33:17.848Z,6.58
2022-11-14T08:35:48.369Z,6.69
2022-11-14T08:38:16.199Z,6.78
2022-11-14T08:40:44.002Z,6.88
2022-11-14T08:43:11.974Z,6.97
2022-11-14T08:45:41.034Z,7.05
2022-11-14T08:48:08.728Z,7.16
2022-11-14T08:50:36.467Z,7.23
2022-11-14T08:53:04.158Z,7.30
2022-11-14T08:55:31.838Z,7.37
2022-11-14T08:57:59.641Z,7.44
2022-11-14T09:00:27.591Z,7.53
2022-11-14T09:02:56.710Z,7.61
2022-11-14T09:05:24.495Z,7.69
2022-11-14T09:07:52.217Z,7.74
2022-11-14T09:10:19.966Z,7.85
2022-11-14T09:12:47.691Z,7.94
2022-11-14T09:15:15.390Z,8.00
2022-11-14T09:17:43.061Z,8.05
2022-11-14T09:20:12.229Z,8.10
2022-11-14T09:22:39.904Z,8.14
2022-11-14T09:25:09.356Z,8.17
2022-11-14T09:27:37.084Z,8.26
2022-11-14T09:30:06.279Z,8.33
2022-11-14T09:32:33.975Z,8.37
2022-11-14T09:35:01.744Z,8.39
2022-11-14T09:37:30.856Z,8.40
2022-11-14T09:39:58.559Z,8.39
2022-11-14T09:42:43.316Z,8.41
2022-11-14T09:45:14.539Z,8.47
2022-11-14T09:47:45.450Z,8.56
2022-11-14T09:50:15.945Z,8.59
2022-11-14T09:52:51.062Z,8.65
2022-11-14T09:55:20.921Z,8.65
2022-11-14T09:57:48.962Z,8.68
2022-11-14T10:00:19.047Z,8.72
2022-11-14T10:03:04.422Z,8.76
2022-11-14T10:05:43.218Z,8.76
2022-11-14T10:08:28.867Z,8.81
2022-11-14T10:10:59.439Z,8.87
2022-11-14T10:13:39.242Z,8.95
2022-11-14T10:16:15.296Z,9.04
2022-11-14T10:18:58.160Z,9.08
2022-11-14T10:21:39.895Z,9.10
2022-11-14T10:24:27.826Z,9.11
2022-11-14T10:27:02.961Z,9.17
2022-11-14T10:29:47.519Z,9.23
2022-11-14T10:32:21.892Z,9.25
2022-11-14T10:34:55.331Z,9.22
2022-11-14T10:37:28.021Z,9.22
2022-11-14T10:40:03.596Z,9.23
2022-11-14T10:42:36.360Z,9.23
2022-11-14T10:45:09.022Z,9.15
2022-11-14T10:47:41.122Z,9.11
2022-11-14T10:50:19.083Z,9.09
2022-11-14T10:52:48.898Z,9.11
2022-11-14T10:55:22.508Z,9.07
2022-11-14T10:57:55.676Z,9.03
2022-11-14T11:00:23.806Z,9.02
2022-11-14T11:02:54.755Z,9.04
2022-11-14T11:05:25.437Z,9.08
2022-11-14T11:08:36.287Z,9.14
2022-11-14T11:11:18.136Z,9.22
2022-11-14T11:13:54.417Z,9.26
2022-11-14T11:16:24.399Z,9.29
2022-11-14T11:18:52.795Z,9.26
2022-11-14T11:21:22.278Z,9.30
2022-11-14T11:23:52.103Z,9.36
2022-11-14T11:26:26.030Z,9.40
2022-11-14T11:29:05.637Z,9.48
2022-11-14T11:31:52.679Z,9.60
2022-11-14T11:34:25.465Z,9.70
2022-11-14T11:36:58.679Z,9.80
2022-11-14T11:39:30.754Z,9.93
2022-11-14T11:42:09.699Z,10.00
2022-11-14T11:44:45.273Z,10.07
2022-11-14T11:47:16.952Z,10.13
2022-11-14T11:49:53.031Z,10.19
2022-11-14T11:52:32.437Z,10.21
2022-11-14T11:55:04.660Z,10.26
2022-11-14T11:57:37.826Z,10.33
2022-11-14T12:00:08.682Z,10.39
2022-11-14T12:02:42.242Z,10.44
2022-11-14T12:05:16.457Z,10.42
2022-11-14T12:07:51.777Z,10.43
2022-11-14T12:10:24.250Z,10.43
2022-11-14T12:13:12.623Z,10.48
2022-11-14T12:15:52.493Z,10.50
2022-11-14T12:18:45.549Z,10.52
2022-11-14T12:21:19.922Z,10.51
2022-11-14T12:24:13.782Z,10.54
2022-11-14T12:26:54.767Z,10.61
2022-11-14T12:29:46.064Z,10.65
2022-11-14T12:32:31.161Z,10.68
2022-11-14T12:35:01.900Z,10.71
2022-11-14T12:37:34.084Z,10.79
2022-11-14T12:40:04.404Z,10.83
2022-11-14T12:42:33.278Z,10.90
2022-11-14T12:45:00.968Z,10.93
2022-11-14T12:47:30.215Z,10.93
2022-11-14T12:50:02.854Z,10.93
2022-11-14T12:52:48.725Z,10.93
2022-11-14T12:55:57.239Z,10.98
2022-11-14T12:58:47.740Z,10.98
2022-11-14T13:01:28.501Z,10.96
2022-11-14T13:04:13.329Z,10.97
2022-11-14T13:06:53.435Z,11.00
2022-11-14T13:09:36.485Z,11.02
2022-11-14T13:12:48.138Z,11.01
2022-11-14T13:16:05.084Z,10.99
2022-11-14T13:18:50.467Z,10.97
2022-11-14T13:21:43.974Z,10.93
2022-11-14T13:24:15.806Z,10.84
2022-11-14T13:26:48.789Z,10.81
2022-11-14T13:29:59.899Z,10.75
2022-11-14T13:33:07.637Z,10.78
2022-11-14T13:35:43.249Z,10.78
2022-11-14T13:38:39.645Z,10.80
2022-11-14T13:41:24.794Z,10.82
2022-11-14T13:44:05.777Z,10.84
2022-11-14T13:46:49.038Z,10.87
2022-11-14T13:49:33.857Z,10.92
2022-11-14T13:52:01.767Z,10.96
2022-11-14T13:54:31.130Z,10.96
2022-11-14T13:57:07.538Z,10.93
2022-11-14T14:00:02.484Z,10.89
2022-11-14T14:02:49.378Z,10.86
2022-11-14T14:05:26.062Z,10.84
2022-11-14T14:08:14.327Z,10.83
2022-11-14T14:10:59.105Z,10.81
2022-11-14T14:13:40.435Z,10.79
2022-11-14T14:16:18.537Z,10.80
2022-11-14T14:18:56.839Z,10.77
2022-11-14T14:21:37.430Z,10.79
2022-11-14T14:24:18.386Z,10.80
2022-11-14T14:27:00.344Z,10.83
2022-11-14T14:29:38.808Z,10.85
2022-11-14T14:32:17.702Z,10.84
2022-11-14T14:34:45.617Z,10.85
2022-11-14T14:37:20.996Z,10.86
2022-11-14T14:39:59.561Z,10.86
2022-11-14T14:42:35.359Z,10.79
2022-11-14T14:45:04.514Z,10.80
2022-11-14T14:47:40.398Z,10.81
2022-11-14T14:50:16.942Z,10.82
2022-11-14T14:52:44.655Z,10.80
2022-11-14T14:55:21.018Z,10.80
2022-11-14T14:57:50.222Z,10.81
2022-11-14T15:00:21.714Z,10.81
2022-11-14T15:02:50.890Z,10.82
2022-11-14T15:05:25.728Z,10.82
2022-11-14T15:07:56.330Z,10.82
2022-11-14T15:10:26.002Z,10.82
2022-11-14T15:12:55.705Z,10.84
2022-11-14T15:15:25.705Z,10.81
2022-11-14T15:17:55.176Z,10.78
2022-11-14T15:20:24.759Z,10.77
2022-11-14T15:23:07.501Z,10.74
2022-11-14T15:25:35.239Z,10.73
2022-11-14T15:28:07.461Z,10.72
2022-11-14T15:30:37.332Z,10.72
2022-11-14T15:33:07.508Z,10.72
2022-11-14T15:35:36.877Z,10.71
2022-11-14T15:38:36.865Z,10.71
2022-11-14T15:41:17.758Z,10.72
2022-11-14T15:43:53.108Z,10.70
2022-11-14T15:46:29.526Z,10.66
2022-11-14T15:48:57.345Z,10.66
2022-11-14T15:51:40.290Z,10.67
2022-11-14T15:54:22.362Z,10.66
2022-11-14T15:56:50.104Z,10.66
2022-11-14T15:59:19.521Z,10.63
2022-11-14T16:01:50.100Z,10.64
2022-11-14T16:04:20.021Z,10.64
2022-11-14T16:06:48.380Z,10.64
2022-11-14T16:09:18.047Z,10.64
2022-11-14T16:11:48.827Z,10.61
2022-11-14T16:14:16.827Z,10.63
2022-11-14T16:16:45.918Z,10.63
2022-11-14T16:19:16.059Z,10.63
2022-11-14T16:21:44.587Z,10.64
2022-11-14T16:24:17.146Z,10.62
2022-11-14T16:26:45.118Z,10.59
2022-11-14T16:29:12.947Z,10.55
2022-11-14T16:31:41.290Z,10.56
2022-11-14T16:34:15.077Z,10.56
2022-11-14T16:36:45.213Z,10.53
2022-11-14T16:39:13.651Z,10.51
2022-11-14T16:41:41.378Z,10.54
2022-11-14T16:44:14.469Z,10.54
2022-11-14T16:46:42.229Z,10.59
2022-11-14T16:49:14.265Z,10.60
2022-11-14T16:51:50.318Z,10.61
2022-11-14T16:54:19.497Z,10.62
2022-11-14T16:56:47.511Z,10.62
2022-11-14T16:59:15.449Z,10.61
2022-11-14T17:01:43.738Z,10.62
2022-11-14T17:04:12.894Z,10.63
2022-11-14T17:06:40.792Z,10.60
2022-11-14T17:09:08.544Z,10.60
2022-11-14T17:11:36.210Z,10.60
2022-11-14T17:14:03.925Z,10.59
2022-11-14T17:16:31.724Z,10.58
2022-11-14T17:18:59.538Z,10.58
2022-11-14T17:21:28.772Z,10.58
2022-11-14T17:23:57.076Z,10.58
2022-11-14T17:26:28.044Z,10.56
2022-11-14T17:28:57.811Z,10.54
2022-11-14T17:31:25.490Z,10.53
2022-11-14T17:33:54.205Z,10.53
2022-11-14T17:36:23.459Z,10.54
2022-11-14T17:38:52.807Z,10.54
2022-11-14T17:41:20.845Z,10.53
2022-11-14T17:43:52.487Z,10.50
2022-11-14T17:46:20.195Z,10.50
2022-11-14T17:48:48.195Z,10.46
2022-11-14T17:51:17.228Z,10.45
2022-11-14T17:53:45.018Z,10.45
2022-11-14T17:56:16.228Z,10.47
2022-11-14T17:58:44.649Z,10.48
2022-11-14T18:01:13.319Z,10.48
2022-11-14T18:03:41.153Z,10.50
2022-11-14T18:06:10.004Z,10.48
2022-11-14T18:08:38.142Z,10.45
2022-11-14T18:11:07.789Z,10.44
2022-11-14T18:13:36.966Z,10.44
2022-11-14T18:16:05.949Z,10.45
2022-11-14T18:18:34.292Z,10.44
2022-11-14T18:21:07.886Z,10.45
2022-11-14T18:23:36.310Z,10.43
2022-11-14T18:26:10.190Z,10.43
2022-11-14T18:28:39.687Z,10.45
2022-11-14T18:31:10.722Z,10.46
2022-11-14T18:33:38.977Z,10.45
2022-11-14T18:36:09.310Z,10.47
2022-11-14T18:38:37.571Z,10.45
2022-11-14T18:41:09.117Z,10.45
2022-11-14T18:43:36.833Z,10.44
2022-11-14T18:46:11.143Z,10.44
2022-11-14T18:48:40.718Z,10.45
2022-11-14T18:51:13.194Z,10.44
2022-11-14T18:53:40.811Z,10.43
2022-11-14T18:56:10.934Z,10.40
2022-11-14T18:58:39.783Z,10.38
2022-11-14T19:01:13.493Z,10.35
2022-11-14T19:03:41.512Z,10.37
2022-11-14T19:06:11.183Z,10.35
2022-11-14T19:08:39.626Z,10.36
2022-11-14T19:11:09.132Z,10.32
2022-11-14T19:13:36.889Z,10.30
2022-11-14T19:16:06.238Z,10.32
2022-11-14T19:18:35.304Z,10.32
2022-11-14T19:21:04.650Z,10.33
2022-11-14T19:23:32.838Z,10.33
2022-11-14T19:26:01.679Z,10.32
2022-11-14T19:28:30.320Z,10.33
2022-11-14T19:31:02.073Z,10.30
2022-11-14T19:33:30.073Z,10.22
2022-11-14T19:35:59.653Z,10.19
2022-11-14T19:38:27.431Z,10.09
2022-11-14T19:40:55.175Z,10.01
2022-11-14T19:43:25.310Z,9.93
2022-11-14T19:45:53.091Z,9.90
2022-11-14T19:48:20.847Z,9.86
2022-11-14T19:50:48.676Z,9.78
2022-11-14T19:53:17.740Z,9.77
2022-11-14T19:55:45.435Z,9.72
2022-11-14T19:58:13.110Z,9.69
2022-11-14T20:00:40.815Z,9.65
2022-11-14T20:03:08.527Z,9.61
2022-11-14T20:05:36.344Z,9.60
2022-11-14T20:08:04.154Z,9.57
2022-11-14T20:10:47.515Z,9.51
2022-11-14T20:13:15.684Z,9.50
2022-11-14T20:15:43.554Z,9.51
2022-11-14T20:18:14.455Z,9.52
2022-11-14T20:20:42.459Z,9.47
2022-11-14T20:23:10.881Z,9.44
2022-11-14T20:25:40.851Z,9.39
2022-11-14T20:28:09.207Z,9.42
2022-11-14T20:30:43.254Z,9.40
2022-11-14T20:33:11.321Z,9.39
2022-11-14T20:35:39.380Z,9.35
2022-11-14T20:38:07.683Z,9.39
2022-11-14T20:40:35.714Z,9.42
2022-11-14T20:43:04.881Z,9.49
2022-11-14T20:45:32.688Z,9.53
2022-11-14T20:48:00.437Z,9.57
2022-11-14T20:50:28.369Z,9.61
2022-11-14T20:52:56.166Z,9.66
2022-11-14T20:55:23.909Z,9.72
2022-11-14T20:57:51.697Z,9.73
2022-11-14T21:00:21.427Z,9.74
2022-11-14T21:02:49.965Z,9.80
2022-11-14T21:05:17.870Z,9.82
2022-11-14T21:07:45.600Z,9.80
2022-11-14T21:10:30.673Z,9.80
2022-11-14T21:13:12.168Z,9.77
2022-11-14T21:15:41.152Z,9.74
2022-11-14T21:18:08.888Z,9.72
2022-11-14T21:20:36.774Z,9.74
2022-11-14T21:23:04.513Z,9.76
2022-11-14T21:25:32.183Z,9.79
2022-11-14T21:27:59.830Z,9.78
2022-11-14T21:30:27.584Z,9.78
2022-11-14T21:32:56.605Z,9.84
2022-11-14T21:35:24.404Z,9.87
2022-11-14T21:37:52.007Z,9.89
2022-11-14T21:40:19.679Z,9.88
2022-11-14T21:42:47.381Z,9.92
2022-11-14T21:45:15.711Z,9.89
2022-11-14T21:47:43.400Z,9.89
2022-11-14T21:50:12.603Z,9.91
2022-11-14T21:52:40.233Z,9.91
2022-11-14T21:55:08.740Z,9.94
2022-11-14T21:57:36.456Z,9.96
2022-11-14T22:00:04.375Z,9.99
2022-11-14T22:02:49.426Z,10.00
2022-11-14T22:05:18.475Z,10.02
2022-11-14T22:07:46.138Z,10.02
2022-11-14T22:10:13.773Z,10.04
2022-11-14T22:12:41.571Z,10.09
2022-11-14T22:15:09.949Z,10.10
2022-11-14T22:17:37.642Z,10.13
2022-11-14T22:20:06.090Z,10.15
2022-11-14T22:22:35.181Z,10.16
2022-11-14T22:25:02.878Z,10.18
2022-11-14T22:27:30.527Z,10.22
2022-11-14T22:29:58.224Z,10.25
2022-11-14T22:32:28.158Z,10.26
2022-11-14T22:34:55.858Z,10.25
2022-11-14T22:37:23.541Z,10.26
2022-11-14T22:39:52.559Z,10.26
2022-11-14T22:42:20.214Z,10.26
2022-11-14T22:44:47.874Z,10.26
2022-11-14T22:47:15.564Z,10.29
2022-11-14T22:49:43.202Z,10.30
2022-11-14T22:52:10.881Z,10.32
2022-11-14T22:54:38.534Z,10.34
2022-11-14T22:57:07.589Z,10.34
2022-11-14T22:59:35.213Z,10.37
2022-11-14T23:02:02.848Z,10.40
2022-11-14T23:04:30.485Z,10.41
2022-11-14T23:06:58.150Z,10.42
2022-11-14T23:09:27.126Z,10.44
2022-11-14T23:11:54.778Z,10.47
2022-11-14T23:14:23.816Z,10.51
2022-11-14T23:16:51.492Z,10.53
2022-11-14T23:19:19.163Z,10.54
2022-11-14T23:21:46.836Z,10.55
2022-11-14T23:24:15.529Z,10.56
2022-11-14T23:26:43.191Z,10.60
2022-11-14T23:29:13.846Z,10.60
2022-11-14T23:31:42.892Z,10.64
2022-11-14T23:34:10.529Z,10.69
2022-11-14T23:36:38.203Z,10.69
2022-11-14T23:39:05.923Z,10.71
2022-11-14T23:41:33.620Z,10.74
2022-11-14T23:44:01.261Z,10.76
2022-11-14T23:46:28.912Z,10.80
2022-11-14T23:48:59.982Z,10.82
2022-11-14T23:51:27.649Z,10.84
2022-11-14T23:53:55.365Z,10.86
2022-11-14T23:56:23.024Z,10.90
2022-11-14T23:58:52.804Z,10.92
